Rupert, Vermont
Current Conditions -  °F | °C
As of 3:53 AM on Friday 19 Dec 2014 (Local Time) from KGFL Reporting Station
Overcast Overcast  
Wind Chill: -1°   Ceiling: 4600
Heat Index: -1°   Visibility: 10mi
Dew Point: -6°   Wind: 3mph
Humidity: 69%   Direction: 40°NE
Pressure: 29.94"   Gusts: NA
Location:  43.26°N, 73.22°W
Report Text: KGFL 190853Z AUTO 04003KT 10SM FEW030 OVC046 M01/M06 A2994 RMK AO2 SLP146 T10111061 50005
Loading
Personal Weather Stations






























Interactive Weather Map New forecast layout! Learn more

10-Day Weather Forecast

Advertisements
Track Severe Weather on mobile